createdAt,value
2022-11-24T00:00:12.638Z,0.61
2022-11-24T00:02:42.414Z,0.65
2022-11-24T00:05:10.839Z,0.61
2022-11-24T00:07:39.994Z,0.59
2022-11-24T00:10:08.698Z,0.62
2022-11-24T00:12:37.512Z,0.61
2022-11-24T00:15:06.571Z,0.61
2022-11-24T00:17:34.909Z,0.59
2022-11-24T00:20:05.681Z,0.59
2022-11-24T00:22:35.396Z,0.56
2022-11-24T00:25:03.665Z,0.62
2022-11-24T00:27:33.498Z,0.61
2022-11-24T00:30:01.883Z,0.61
2022-11-24T00:32:31.219Z,0.59
2022-11-24T00:35:00.309Z,0.61
2022-11-24T00:37:37.420Z,0.61
2022-11-24T00:40:06.695Z,0.59
2022-11-24T00:42:38.266Z,0.59
2022-11-24T00:45:13.925Z,0.59
2022-11-24T00:47:42.458Z,0.59
2022-11-24T00:50:11.242Z,0.58
2022-11-24T00:52:40.833Z,0.58
2022-11-24T00:55:09.242Z,0.52
2022-11-24T00:57:37.277Z,0.54
2022-11-24T01:00:07.135Z,0.54
2022-11-24T01:02:35.484Z,0.54
2022-11-24T01:05:03.948Z,0.51
2022-11-24T01:07:33.876Z,0.49
2022-11-24T01:10:04.009Z,0.49
2022-11-24T01:12:34.012Z,0.46
2022-11-24T01:15:02.190Z,0.45
2022-11-24T01:17:34.296Z,0.45
2022-11-24T01:20:02.990Z,0.45
2022-11-24T01:22:31.607Z,0.45
2022-11-24T01:24:59.597Z,0.42
2022-11-24T01:27:32.807Z,0.42
2022-11-24T01:30:01.927Z,0.41
2022-11-24T01:32:33.110Z,0.42
2022-11-24T01:35:02.694Z,0.40
2022-11-24T01:37:32.946Z,0.41
2022-11-24T01:40:01.062Z,0.42
2022-11-24T01:42:41.672Z,0.42
2022-11-24T01:45:33.576Z,0.42
2022-11-24T01:48:29.075Z,0.41
2022-11-24T01:51:07.526Z,0.38
2022-11-24T01:53:37.712Z,0.37
2022-11-24T01:56:08.796Z,0.33
2022-11-24T01:58:39.928Z,0.31
2022-11-24T02:01:08.818Z,0.31
2022-11-24T02:03:41.659Z,0.28
2022-11-24T02:06:12.984Z,0.24
2022-11-24T02:08:48.001Z,0.22
2022-11-24T02:11:18.931Z,0.21
2022-11-24T02:13:49.511Z,0.21
2022-11-24T02:16:19.588Z,0.17
2022-11-24T02:18:47.758Z,0.15
2022-11-24T02:21:17.084Z,0.13
2022-11-24T02:23:52.214Z,0.13
2022-11-24T02:26:30.341Z,0.13
2022-11-24T02:28:59.307Z,0.11
2022-11-24T02:31:27.451Z,0.13
2022-11-24T02:33:57.766Z,0.13
2022-11-24T02:36:28.272Z,0.10
2022-11-24T02:38:56.495Z,0.10
2022-11-24T02:41:27.262Z,0.08
2022-11-24T02:43:56.757Z,0.11
2022-11-24T02:46:25.129Z,0.08
2022-11-24T02:48:53.331Z,0.07
2022-11-24T02:51:21.309Z,0.04
2022-11-24T02:53:49.711Z,0.06
2022-11-24T02:56:17.959Z,0.08
2022-11-24T02:58:47.536Z,0.10
2022-11-24T03:01:17.260Z,0.10
2022-11-24T03:03:45.406Z,0.07
2022-11-24T03:06:15.203Z,0.04
2022-11-24T03:08:44.916Z,0.03
2022-11-24T03:11:13.949Z,0.00
2022-11-24T03:13:41.852Z,-0.02
2022-11-24T03:16:11.923Z,-0.04
2022-11-24T03:18:40.623Z,-0.06
2022-11-24T03:21:12.304Z,-0.07
2022-11-24T03:23:41.255Z,-0.07
2022-11-24T03:26:10.687Z,-0.07
2022-11-24T03:28:39.073Z,-0.06
2022-11-24T03:31:07.756Z,-0.04
2022-11-24T03:33:37.569Z,-0.06
2022-11-24T03:36:07.222Z,-0.04
2022-11-24T03:38:35.596Z,-0.06
2022-11-24T03:41:03.624Z,-0.09
2022-11-24T03:43:32.341Z,-0.09
2022-11-24T03:46:00.817Z,-0.10
2022-11-24T03:48:29.259Z,-0.07
2022-11-24T03:51:00.714Z,-0.09
2022-11-24T03:53:31.448Z,-0.09
2022-11-24T03:55:59.611Z,-0.13
2022-11-24T03:58:31.529Z,-0.14
2022-11-24T04:00:59.775Z,-0.13
2022-11-24T04:03:27.841Z,-0.14
2022-11-24T04:05:57.420Z,-0.17
2022-11-24T04:08:26.963Z,-0.18
2022-11-24T04:10:55.978Z,-0.17
2022-11-24T04:13:25.395Z,-0.15
2022-11-24T04:15:57.966Z,-0.15
2022-11-24T04:18:26.194Z,-0.18
2022-11-24T04:20:54.393Z,-0.18
2022-11-24T04:23:22.631Z,-0.15
2022-11-24T04:25:55.432Z,-0.17
2022-11-24T04:28:23.488Z,-0.15
2022-11-24T04:30:53.883Z,-0.15
2022-11-24T04:33:22.063Z,-0.14
2022-11-24T04:35:52.129Z,-0.18
2022-11-24T04:39:24.377Z,-0.18
2022-11-24T04:41:10.706Z,-0.14
2022-11-24T04:43:40.905Z,-0.13
2022-11-24T04:46:10.507Z,-0.17
2022-11-24T04:48:42.937Z,-0.21
2022-11-24T04:51:12.039Z,-0.24
2022-11-24T04:53:40.465Z,-0.21
2022-11-24T04:56:11.104Z,-0.27
2022-11-24T04:58:39.582Z,-0.25
2022-11-24T05:01:09.750Z,-0.27
2022-11-24T05:03:38.282Z,-0.28
2022-11-24T05:06:08.873Z,-0.28
2022-11-24T05:08:37.147Z,-0.28
2022-11-24T05:11:07.743Z,-0.30
2022-11-24T05:13:37.427Z,-0.31
2022-11-24T05:16:06.411Z,-0.31
2022-11-24T05:18:34.559Z,-0.31
2022-11-24T05:21:03.408Z,-0.33
2022-11-24T05:23:31.708Z,-0.33
2022-11-24T05:26:00.978Z,-0.35
2022-11-24T05:28:33.380Z,-0.38
2022-11-24T05:31:03.848Z,-0.42
2022-11-24T05:33:34.261Z,-0.40
2022-11-24T05:36:03.301Z,-0.40
2022-11-24T05:38:32.175Z,-0.40
2022-11-24T05:41:07.071Z,-0.41
2022-11-24T05:43:35.221Z,-0.42
2022-11-24T05:46:05.002Z,-0.40
2022-11-24T05:48:33.021Z,-0.40
2022-11-24T05:51:03.182Z,-0.40
2022-11-24T05:53:34.620Z,-0.38
2022-11-24T05:56:03.852Z,-0.41
2022-11-24T05:58:33.744Z,-0.24
2022-11-24T06:01:02.261Z,0.04
2022-11-24T06:03:32.174Z,0.21
2022-11-24T06:06:00.636Z,0.25
2022-11-24T06:08:31.250Z,0.31
2022-11-24T06:11:17.150Z,0.25
2022-11-24T06:13:46.368Z,0.28
2022-11-24T06:16:15.235Z,0.25
2022-11-24T06:18:46.067Z,0.33
2022-11-24T06:21:14.587Z,0.24
2022-11-24T06:23:42.621Z,0.18
2022-11-24T06:26:11.305Z,0.06
2022-11-24T06:28:39.385Z,-0.03
2022-11-24T06:31:07.962Z,-0.09
2022-11-24T06:33:38.191Z,-0.10
2022-11-24T06:36:10.984Z,-0.14
2022-11-24T06:38:39.053Z,-0.15
2022-11-24T06:41:09.070Z,-0.14
2022-11-24T06:43:37.450Z,-0.15
2022-11-24T06:46:08.261Z,-0.15
2022-11-24T06:48:36.698Z,-0.17
2022-11-24T06:51:08.602Z,-0.13
2022-11-24T06:53:39.562Z,-0.13
2022-11-24T06:56:15.781Z,-0.10
2022-11-24T06:58:46.633Z,-0.09
2022-11-24T07:01:16.046Z,-0.09
2022-11-24T07:03:45.418Z,-0.10
2022-11-24T07:06:15.305Z,-0.10
2022-11-24T07:08:44.644Z,-0.11
2022-11-24T07:11:15.640Z,-0.11
2022-11-24T07:13:45.332Z,-0.07
2022-11-24T07:16:15.269Z,-0.06
2022-11-24T07:18:43.756Z,-0.04
2022-11-24T07:21:21.840Z,-0.02
2022-11-24T07:23:52.227Z,-0.02
2022-11-24T07:26:21.048Z,-0.02
2022-11-24T07:28:49.717Z,0.00
2022-11-24T07:31:20.233Z,0.03
2022-11-24T07:33:49.501Z,0.03
2022-11-24T07:36:19.465Z,0.06
2022-11-24T07:38:48.111Z,0.07
2022-11-24T07:41:17.957Z,0.08
2022-11-24T07:43:46.061Z,0.13
2022-11-24T07:46:18.291Z,0.15
2022-11-24T07:48:47.099Z,0.18
2022-11-24T07:51:16.157Z,0.19
2022-11-24T07:53:46.827Z,0.21
2022-11-24T07:56:15.074Z,0.25
2022-11-24T07:58:48.325Z,0.28
2022-11-24T08:01:20.961Z,0.33
2022-11-24T08:03:50.341Z,0.37
2022-11-24T08:06:31.811Z,0.40
2022-11-24T08:09:11.358Z,0.41
2022-11-24T08:11:39.493Z,0.46
2022-11-24T08:14:10.177Z,0.48
2022-11-24T08:16:39.100Z,0.52
2022-11-24T08:19:09.444Z,0.55
2022-11-24T08:21:38.506Z,0.56
2022-11-24T08:24:10.036Z,0.59
2022-11-24T08:26:40.635Z,0.64
2022-11-24T08:29:09.417Z,0.65
2022-11-24T08:31:40.907Z,0.62
2022-11-24T08:34:10.335Z,0.64
2022-11-24T08:36:38.307Z,0.66
2022-11-24T08:39:08.053Z,0.69
2022-11-24T08:41:36.066Z,0.70
2022-11-24T08:44:04.674Z,0.79
2022-11-24T08:46:32.698Z,0.85
2022-11-24T08:49:01.023Z,0.89
2022-11-24T08:51:29.723Z,0.97
2022-11-24T08:53:59.081Z,1.04
2022-11-24T08:56:30.591Z,1.12
2022-11-24T08:58:59.407Z,1.13
2022-11-24T09:01:28.236Z,1.24
2022-11-24T09:03:58.440Z,1.34
2022-11-24T09:06:30.889Z,1.40
2022-11-24T09:08:59.377Z,1.34
2022-11-24T09:11:30.750Z,1.40
2022-11-24T09:13:59.074Z,1.35
2022-11-24T09:16:29.897Z,1.37
2022-11-24T09:19:01.258Z,1.40
2022-11-24T09:21:34.573Z,1.43
2022-11-24T09:24:04.032Z,1.44
2022-11-24T09:26:36.039Z,1.45
2022-11-24T09:29:08.163Z,1.48
2022-11-24T09:31:39.217Z,1.52
2022-11-24T09:34:11.156Z,1.56
2022-11-24T09:36:39.185Z,1.55
2022-11-24T09:39:07.671Z,1.59
2022-11-24T09:41:41.372Z,1.68
2022-11-24T09:44:17.910Z,1.75
2022-11-24T09:46:53.049Z,1.82
2022-11-24T09:49:27.558Z,1.93
2022-11-24T09:51:57.754Z,1.95
2022-11-24T09:54:29.332Z,1.99
2022-11-24T09:57:02.910Z,2.05
2022-11-24T09:59:31.391Z,2.09
2022-11-24T10:02:01.271Z,2.16
2022-11-24T10:04:41.416Z,2.12
2022-11-24T10:07:16.256Z,2.22
2022-11-24T10:09:55.869Z,2.30
2022-11-24T10:12:37.939Z,2.33
2022-11-24T10:15:25.703Z,2.34
2022-11-24T10:18:17.757Z,2.47
2022-11-24T10:20:59.003Z,2.60
2022-11-24T10:23:40.885Z,2.61
2022-11-24T10:26:10.291Z,2.61
2022-11-24T10:28:43.498Z,2.64
2022-11-24T10:31:23.001Z,2.65
2022-11-24T10:33:51.461Z,2.60
2022-11-24T10:36:23.318Z,2.60
2022-11-24T10:38:59.110Z,2.64
2022-11-24T10:41:39.371Z,2.72
2022-11-24T10:44:17.152Z,2.87
2022-11-24T10:46:45.758Z,2.99
2022-11-24T10:49:19.836Z,3.05
2022-11-24T10:51:54.522Z,3.16
2022-11-24T10:54:24.683Z,3.26
2022-11-24T10:56:54.498Z,3.24
2022-11-24T10:59:40.591Z,3.30
2022-11-24T11:02:34.123Z,3.46
2022-11-24T11:05:32.049Z,3.51
2022-11-24T11:08:17.947Z,3.47
2022-11-24T11:10:47.348Z,3.50
2022-11-24T11:13:28.506Z,3.46
2022-11-24T11:16:00.942Z,3.41
2022-11-24T11:18:33.539Z,3.37
2022-11-24T11:21:02.971Z,3.34
2022-11-24T11:23:34.734Z,3.39
2022-11-24T11:26:18.398Z,3.41
2022-11-24T11:31:15.377Z,3.40
2022-11-24T11:34:49.325Z,3.43
2022-11-24T11:37:18.799Z,3.46
2022-11-24T11:39:51.560Z,3.49
2022-11-24T11:42:53.587Z,3.49
2022-11-24T11:45:13.283Z,3.53
2022-11-24T11:47:45.378Z,3.57
2022-11-24T11:50:18.040Z,3.59
2022-11-24T11:53:06.881Z,3.63
2022-11-24T11:55:48.185Z,3.68
2022-11-24T11:58:55.614Z,3.75
2022-11-24T12:01:40.294Z,3.81
2022-11-24T12:04:37.353Z,3.89
2022-11-24T12:07:20.994Z,3.99
2022-11-24T12:09:57.345Z,3.98
2022-11-24T12:12:46.313Z,4.02
2022-11-24T12:15:22.573Z,4.06
2022-11-24T12:17:59.930Z,4.10
2022-11-24T12:20:41.412Z,4.13
2022-11-24T12:23:18.854Z,4.20
2022-11-24T12:25:49.373Z,4.22
2022-11-24T12:28:29.568Z,4.32
2022-11-24T12:31:07.014Z,4.36
2022-11-24T12:34:15.204Z,4.42
2022-11-24T12:36:57.676Z,4.47
2022-11-24T12:39:26.710Z,4.49
2022-11-24T12:42:06.422Z,4.50
2022-11-24T12:44:52.515Z,4.53
2022-11-24T12:47:24.695Z,4.53
2022-11-24T12:50:02.731Z,4.50
2022-11-24T12:52:34.681Z,4.47
2022-11-24T12:55:03.375Z,4.53
2022-11-24T12:57:35.338Z,4.52
2022-11-24T13:00:07.196Z,4.56
2022-11-24T13:02:44.474Z,4.59
2022-11-24T13:05:21.401Z,4.66
2022-11-24T13:07:57.566Z,4.73
2022-11-24T13:13:27.326Z,4.89
2022-11-24T13:19:09.654Z,5.09
2022-11-24T13:22:06.057Z,5.14
2022-11-24T13:24:36.963Z,5.19
2022-11-24T13:27:28.447Z,5.22
2022-11-24T13:29:56.962Z,5.24
2022-11-24T13:33:04.805Z,5.25
2022-11-24T13:35:33.033Z,5.22
2022-11-24T13:38:05.529Z,5.24
2022-11-24T13:41:13.468Z,5.26
2022-11-24T13:44:23.291Z,5.31
2022-11-24T13:47:04.757Z,5.31
2022-11-24T13:49:39.110Z,5.29
2022-11-24T13:52:39.659Z,5.25
2022-11-24T13:55:22.420Z,5.25
2022-11-24T13:57:54.521Z,5.24
2022-11-24T14:00:25.338Z,5.21
2022-11-24T14:02:55.253Z,5.22
2022-11-24T14:05:26.457Z,5.21
2022-11-24T14:07:55.515Z,5.21
2022-11-24T14:10:30.438Z,5.19
2022-11-24T14:13:32.400Z,5.22
2022-11-24T14:16:02.552Z,5.19
2022-11-24T14:18:31.808Z,5.21
2022-11-24T14:21:02.575Z,5.24
2022-11-24T14:23:32.398Z,5.24
2022-11-24T14:26:00.677Z,5.26
2022-11-24T14:28:30.770Z,5.22
2022-11-24T14:31:09.619Z,5.22
2022-11-24T14:33:37.800Z,5.26
2022-11-24T14:36:06.807Z,5.28
2022-11-24T14:38:36.390Z,5.24
2022-11-24T14:41:20.711Z,5.24
2022-11-24T14:43:50.425Z,5.24
2022-11-24T14:46:20.118Z,5.26
2022-11-24T14:48:50.571Z,5.25
2022-11-24T14:51:23.223Z,5.22
2022-11-24T14:53:58.982Z,5.24
2022-11-24T14:56:29.452Z,5.18
2022-11-24T14:59:00.006Z,5.19
2022-11-24T15:01:33.955Z,5.14
2022-11-24T15:04:46.699Z,5.14
2022-11-24T15:07:15.455Z,5.14
2022-11-24T15:09:53.111Z,5.12
2022-11-24T15:12:29.233Z,5.08
2022-11-24T15:15:01.687Z,5.05
2022-11-24T15:17:31.400Z,5.05
2022-11-24T15:20:02.426Z,5.05
2022-11-24T15:22:39.352Z,5.07
2022-11-24T15:25:27.931Z,5.05
2022-11-24T15:27:56.057Z,5.04
2022-11-24T15:30:26.489Z,5.03
2022-11-24T15:32:56.109Z,5.01
2022-11-24T15:35:26.024Z,5.04
2022-11-24T15:37:54.308Z,5.01
2022-11-24T15:40:22.930Z,4.98
2022-11-24T15:42:52.792Z,4.98
2022-11-24T15:45:23.100Z,4.95
2022-11-24T15:47:54.624Z,4.95
2022-11-24T15:50:24.798Z,4.92
2022-11-24T15:52:54.227Z,4.94
2022-11-24T15:55:23.035Z,4.91
2022-11-24T15:57:51.496Z,4.89
2022-11-24T16:00:21.708Z,4.89
2022-11-24T16:02:50.318Z,4.88
2022-11-24T16:05:21.122Z,4.84
2022-11-24T16:07:52.593Z,4.84
2022-11-24T16:10:25.781Z,4.83
2022-11-24T16:12:53.788Z,4.77
2022-11-24T16:15:23.107Z,4.74
2022-11-24T16:17:51.605Z,4.73
2022-11-24T16:20:21.623Z,4.68
2022-11-24T16:22:49.960Z,4.68
2022-11-24T16:25:18.664Z,4.67
2022-11-24T16:27:46.760Z,4.67
2022-11-24T16:30:16.353Z,4.66
2022-11-24T16:32:44.960Z,4.64
2022-11-24T16:35:13.977Z,4.66
2022-11-24T16:37:43.516Z,4.67
2022-11-24T16:40:12.736Z,4.67
2022-11-24T16:42:41.207Z,4.66
2022-11-24T16:45:12.246Z,4.66
2022-11-24T16:47:41.737Z,4.67
2022-11-24T16:50:13.532Z,4.66
2022-11-24T16:52:43.997Z,4.66
2022-11-24T16:55:14.176Z,4.66
2022-11-24T16:57:43.776Z,4.61
2022-11-24T17:00:13.064Z,4.63
2022-11-24T17:02:41.343Z,4.63
2022-11-24T17:05:10.051Z,4.63
2022-11-24T17:07:38.258Z,4.61
2022-11-24T17:10:09.693Z,4.60
2022-11-24T17:12:39.087Z,4.60
2022-11-24T17:15:31.722Z,4.59
2022-11-24T17:18:23.030Z,4.57
2022-11-24T17:20:45.515Z,4.54
2022-11-24T17:23:13.745Z,4.54
2022-11-24T17:25:43.457Z,4.54
2022-11-24T17:28:11.662Z,4.53
2022-11-24T17:30:41.065Z,4.54
2022-11-24T17:33:09.203Z,4.52
2022-11-24T17:35:39.150Z,4.49
2022-11-24T17:38:08.736Z,4.47
2022-11-24T17:40:37.177Z,4.49
2022-11-24T17:43:07.387Z,4.43
2022-11-24T17:45:37.597Z,4.45
2022-11-24T17:48:06.018Z,4.42
2022-11-24T17:50:34.024Z,4.39
2022-11-24T17:53:02.020Z,4.38
2022-11-24T17:55:30.057Z,4.35
2022-11-24T17:57:57.956Z,4.35
2022-11-24T18:00:28.054Z,4.38
2022-11-24T18:02:58.822Z,4.35
2022-11-24T18:05:29.320Z,4.38
2022-11-24T18:07:58.577Z,4.40
2022-11-24T18:10:30.133Z,4.36
2022-11-24T18:12:58.647Z,4.38
2022-11-24T18:15:28.546Z,4.38
2022-11-24T18:17:57.562Z,4.39
2022-11-24T18:20:29.345Z,4.39
2022-11-24T18:23:05.619Z,4.36
2022-11-24T18:25:37.302Z,4.35
2022-11-24T18:28:05.770Z,4.29
2022-11-24T18:30:35.453Z,4.26
2022-11-24T18:33:04.665Z,4.16
2022-11-24T18:35:32.971Z,4.09
2022-11-24T18:38:01.765Z,4.02
2022-11-24T18:40:30.278Z,3.94
2022-11-24T18:42:59.275Z,3.89
2022-11-24T18:45:27.931Z,3.87
2022-11-24T18:47:57.640Z,3.82
2022-11-24T18:50:25.841Z,3.78
2022-11-24T18:52:54.772Z,3.75
2022-11-24T18:55:24.239Z,3.71
2022-11-24T18:57:52.586Z,3.66
2022-11-24T19:00:22.080Z,3.68
2022-11-24T19:02:51.637Z,3.66
2022-11-24T19:05:22.836Z,3.60
2022-11-24T19:07:50.977Z,3.59
2022-11-24T19:10:19.285Z,3.53
2022-11-24T19:12:48.464Z,3.53
2022-11-24T19:15:17.045Z,3.53
2022-11-24T19:17:47.506Z,3.44
2022-11-24T19:20:15.933Z,3.36
2022-11-24T19:22:45.431Z,3.34
2022-11-24T19:25:13.583Z,3.29
2022-11-24T19:27:42.117Z,3.29
2022-11-24T19:30:10.843Z,3.26
2022-11-24T19:32:38.959Z,3.22
2022-11-24T19:35:12.007Z,3.20
2022-11-24T19:37:40.645Z,3.20
2022-11-24T19:40:15.835Z,3.16
2022-11-24T19:42:44.295Z,3.15
2022-11-24T19:45:13.754Z,3.12
2022-11-24T19:47:41.769Z,3.08
2022-11-24T19:50:11.088Z,3.01
2022-11-24T19:52:42.519Z,2.93
2022-11-24T19:55:19.564Z,2.89
2022-11-24T19:57:50.613Z,2.89
2022-11-24T20:00:19.051Z,2.89
2022-11-24T20:02:50.144Z,2.88
2022-11-24T20:05:18.206Z,2.87
2022-11-24T20:07:46.313Z,2.85
2022-11-24T20:10:16.283Z,2.85
2022-11-24T20:12:44.359Z,2.88
2022-11-24T20:15:12.412Z,2.85
2022-11-24T20:17:43.228Z,2.84
2022-11-24T20:20:12.387Z,2.82
2022-11-24T20:22:43.330Z,2.78
2022-11-24T20:25:11.762Z,2.78
2022-11-24T20:27:41.133Z,2.77
2022-11-24T20:30:11.538Z,2.74
2022-11-24T20:32:42.088Z,2.74
2022-11-24T20:35:16.601Z,2.64
2022-11-24T20:37:46.470Z,2.62
2022-11-24T20:40:16.242Z,2.58
2022-11-24T20:42:45.963Z,2.55
2022-11-24T20:45:14.015Z,2.55
2022-11-24T20:47:42.228Z,2.55
2022-11-24T20:50:10.859Z,2.51
2022-11-24T20:52:39.278Z,2.47
2022-11-24T20:55:08.545Z,2.43
2022-11-24T20:57:36.979Z,2.41
2022-11-24T21:00:07.980Z,2.37
2022-11-24T21:02:36.242Z,2.36
2022-11-24T21:05:04.820Z,2.33
2022-11-24T21:07:33.138Z,2.30
2022-11-24T21:10:02.368Z,2.29
2022-11-24T21:12:30.596Z,2.22
2022-11-24T21:14:59.028Z,2.22
2022-11-24T21:17:29.104Z,2.22
2022-11-24T21:20:00.956Z,2.17
2022-11-24T21:22:29.227Z,2.17
2022-11-24T21:24:58.837Z,2.19
2022-11-24T21:27:27.201Z,2.19
2022-11-24T21:29:55.425Z,2.17
2022-11-24T21:32:23.681Z,2.13
2022-11-24T21:34:53.787Z,2.12
2022-11-24T21:37:24.129Z,2.10
2022-11-24T21:39:52.376Z,2.09
2022-11-24T21:42:21.168Z,2.12
2022-11-24T21:44:49.423Z,2.13
2022-11-24T21:47:18.530Z,2.10
2022-11-24T21:49:46.701Z,2.10
2022-11-24T21:52:16.108Z,2.13
2022-11-24T21:54:44.535Z,2.16
2022-11-24T21:57:12.530Z,2.14
2022-11-24T21:59:40.500Z,2.17
2022-11-24T22:02:13.211Z,2.17
2022-11-24T22:04:41.647Z,2.22
2022-11-24T22:07:09.651Z,2.26
2022-11-24T22:09:39.191Z,2.30
2022-11-24T22:12:07.476Z,2.33
2022-11-24T22:14:40.206Z,2.33
2022-11-24T22:17:10.123Z,2.34
2022-11-24T22:19:38.256Z,2.36
2022-11-24T22:22:07.845Z,2.38
2022-11-24T22:24:36.156Z,2.41
2022-11-24T22:27:07.144Z,2.43
2022-11-24T22:29:35.462Z,2.44
2022-11-24T22:32:03.904Z,2.44
2022-11-24T22:34:33.195Z,2.40
2022-11-24T22:37:02.053Z,2.41
2022-11-24T22:39:29.994Z,2.40
2022-11-24T22:41:58.042Z,2.41
2022-11-24T22:44:27.329Z,2.40
2022-11-24T22:46:55.920Z,2.40
2022-11-24T22:49:24.336Z,2.40
2022-11-24T22:51:52.254Z,2.37
2022-11-24T22:54:24.121Z,2.38
2022-11-24T22:56:53.609Z,2.40
2022-11-24T22:59:23.840Z,2.40
2022-11-24T23:01:53.739Z,2.41
2022-11-24T23:04:22.147Z,2.44
2022-11-24T23:06:50.167Z,2.43
2022-11-24T23:09:18.430Z,2.40
2022-11-24T23:11:46.547Z,2.37
2022-11-24T23:14:16.196Z,2.37
2022-11-24T23:16:44.875Z,2.38
2022-11-24T23:19:15.513Z,2.41
2022-11-24T23:21:43.757Z,2.43
2022-11-24T23:24:12.612Z,2.41
2022-11-24T23:26:42.255Z,2.44
2022-11-24T23:29:11.969Z,2.48
2022-11-24T23:31:41.364Z,2.47
2022-11-24T23:34:10.868Z,2.50
2022-11-24T23:36:40.758Z,2.50
2022-11-24T23:39:13.281Z,2.52
2022-11-24T23:41:42.179Z,2.51
2022-11-24T23:44:10.111Z,2.55
2022-11-24T23:46:38.099Z,2.55
2022-11-24T23:49:06.395Z,2.55
2022-11-24T23:51:36.750Z,2.57
2022-11-24T23:54:08.567Z,2.60
2022-11-24T23:56:37.075Z,2.60
2022-11-24T23:59:06.517Z,2.64
